Data for 12/03/2012

Time Sea-Level Adjusted Pressure Absolute Pressure Temperature Relative Humidity Dew Point   
(mb) (inHg) (mb) (inHg) (C) (F) (%) (C) (F)
00:05 1011 29.85 840 24.81 1.2 34.1 60 -5.7 21.7
00:10 1011 29.85 840 24.81 1.2 34.1 62 -5.4 22.3
00:15 1011 29.85 840 24.81 1.1 34.1 59 -6 21.2
00:20 1011 29.85 840 24.81 1 33.8 61 -5.8 21.6
00:25 1011 29.85 840 24.81 0.8 33.4 56 -7.1 19.3
00:30 1011 29.85 840 24.81 0.7 33.2 54 -7.6 18.3
00:35 1011 29.85 840 24.81 0.6 33.1 50 -8.6 16.5
00:40 1011 29.85 840 24.81 0.6 33.1 48 -9.1 15.6
00:45 1011 29.85 840 24.81 0.8 33.5 49 -8.8 16.2
00:50 1011 29.85 840 24.81 0.6 33.1 50 -8.6 16.5
00:55 1012 29.88 841 24.83 0.5 32.9 50 -8.6 16.4
01:00 1012 29.88 841 24.83 0.1 32.1 60 -6.7 19.9
01:05 1012 29.88 842 24.86 -0.2 31.7 54 -8.4 16.9
01:10 1012 29.88 842 24.86 0.4 32.8 59 -6.7 19.9
01:15 1013 29.91 842 24.86 0.5 32.9 61 -6.1 21
01:20 1013 29.91 842 24.86 0.4 32.7 62 -6.1 21
01:25 1012 29.88 842 24.86 0.1 32.2 60 -6.7 19.9
01:30 1012 29.88 841 24.83 -0 32 61 -6.7 20
01:35 1012 29.88 841 24.83 -0.1 31.8 59 -7.3 18.9
01:40 1012 29.88 841 24.83 -0.1 31.8 56 -7.9 17.8
01:45 1012 29.88 842 24.86 -0.1 31.8 52 -8.7 16.3
01:50 1012 29.88 842 24.86 -0.1 31.9 53 -8.5 16.6
01:55 1012 29.88 841 24.83 -0.5 31.2 55 -8.4 16.8
02:00 1012 29.88 841 24.83 -0.7 30.7 57 -8.2 17.3
02:05 1012 29.88 841 24.83 -0.7 30.7 60 -7.6 18.2
02:10 1012 29.88 842 24.86 -0.8 30.5 62 -7.2 19
02:15 1013 29.91 842 24.86 -0.6 30.9 58 -7.9 17.8
02:20 1013 29.91 842 24.86 -0.3 31.5 59 -7.4 18.7
02:25 1013 29.91 842 24.86 -0.4 31.3 56 -8.1 17.5
02:30 1013 29.91 842 24.86 -0.2 31.7 57 -7.8 18
02:35 1013 29.91 842 24.86 -0.3 31.5 57 -7.8 18
02:40 1013 29.91 842 24.86 -0.3 31.4 54 -8.5 16.8
02:45 1013 29.91 843 24.89 -0.1 31.8 53 -8.6 16.6
02:50 1014 29.94 843 24.89 -0.1 31.8 56 -7.9 17.7
02:55 1013 29.91 843 24.89 -0.2 31.6 58 -7.6 18.4
03:00 1014 29.94 843 24.89 -0.4 31.3 57 -7.8 17.9
03:05 1014 29.94 843 24.89 -0.5 31 57 -8 17.6
03:10 1014 29.94 843 24.89 -0.5 31.1 57 -8.1 17.4
03:15 1014 29.94 843 24.89 -0.4 31.3 55 -8.3 17
03:20 1014 29.94 843 24.89 -0.4 31.2 56 -8.2 17.3
03:25 1014 29.94 843 24.89 -0.5 31.1 56 -8.3 17.1
03:30 1014 29.94 843 24.89 -0.6 31 55 -8.4 16.8
03:35 1014 29.94 844 24.92 -0.5 31.1 57 -7.9 17.7
03:40 1014 29.94 844 24.92 -0.7 30.7 58 -8 17.6
03:45 1015 29.97 844 24.92 -0.9 30.4 58 -8.1 17.4
03:50 1015 29.97 844 24.92 -0.9 30.3 58 -8.1 17.4
03:55 1015 29.97 844 24.92 -0.9 30.4 57 -8.3 17
04:00 1015 29.97 844 24.92 -0.9 30.4 57 -8.5 16.8
04:05 1015 29.97 844 24.92 -0.9 30.4 58 -8.1 17.5
04:10 1015 29.97 844 24.92 -1 30.2 59 -7.9 17.7
04:15 1015 29.97 844 24.92 -1 30.3 60 -7.9 17.9
04:20 1015 29.97 844 24.92 -1.1 30.1 60 -7.8 17.9
04:25 1015 29.97 845 24.95 -1.2 29.9 61 -7.7 18.2
04:30 1015 29.97 845 24.95 -1.2 29.8 63 -7.5 18.6
04:35 1016 30 845 24.95 -1.5 29.4 62 -7.8 18
04:40 1016 30 845 24.95 -1.4 29.4 61 -8 17.6
04:45 1016 30 845 24.95 -1.3 29.6 61 -8 17.7
04:50 1016 30 845 24.95 -1.2 29.8 59 -8.2 17.2
04:55 1016 30 845 24.95 -0.9 30.4 58 -8.1 17.5
05:00 1016 30 845 24.95 -0.7 30.7 57 -8.2 17.3
05:05 1016 30 845 24.95 -0 32 52 -8.7 16.3
05:10 1016 30 845 24.95 0.2 32.4 54 -8.1 17.4
05:15 1016 30 845 24.95 0.1 32.2 54 -8.1 17.5
05:20 1016 30 845 24.95 0.1 32.3 54 -8 17.6
05:25 1016 30 845 24.95 0.1 32.2 54 -8.2 17.3
05:30 1016 30 845 24.95 0.2 32.3 55 -7.9 17.8
05:35 1016 30 845 24.95 0.1 32.2 55 -7.8 18
05:40 1016 30 845 24.95 0.3 32.5 51 -8.6 16.5
05:45 1016 30 845 24.95 0.6 33.1 51 -8.5 16.7
05:50 1016 30 845 24.95 0.8 33.4 51 -8.3 17
05:55 1016 30 845 24.95 0.6 33.2 52 -8.1 17.5
06:00 1016 30 845 24.95 0.5 32.9 53 -8 17.7
06:05 1016 30 845 24.95 0.2 32.3 53 -8.2 17.2
06:10 1016 30 845 24.95 0 32.1 52 -8.6 16.5
06:15 1016 30 845 24.95 0.3 32.5 50 -8.9 16.1
06:20 1016 30 845 24.95 0.5 32.8 51 -8.6 16.5
06:25 1016 30 845 24.95 0.3 32.5 53 -8.3 17.1
06:30 1016 30 845 24.95 -0.1 31.7 55 -8.1 17.3
06:35 1016 30 845 24.95 -0.4 31.4 56 -8.2 17.2
06:40 1016 30 845 24.95 -0.5 31.2 56 -8.2 17.2
06:45 1016 30 845 24.95 -0.5 31.2 56 -8.2 17.2
06:50 1016 30 845 24.95 -0.2 31.6 55 -8.1 17.5
06:55 1016 30 845 24.95 -0.1 31.8 55 -8.2 17.2
07:00 1016 30 845 24.95 -0.1 31.9 54 -8.4 16.8
07:05 1016 30 845 24.95 0.2 32.3 51 -8.9 15.9
07:10 1016 30 845 24.95 0.4 32.7 51 -8.5 16.6
07:15 1016 30 845 24.95 0.4 32.7 49 -9 15.8
07:20 1016 30 845 24.95 0.4 32.8 51 -8.6 16.5
07:25 1016 30 845 24.95 0.4 32.7 49 -9.3 15.3
07:30 1016 30 845 24.95 0.4 32.6 50 -9 15.8
07:35 1016 30 846 24.98 0.3 32.5 50 -9.1 15.7
07:40 1016 30 846 24.98 0.2 32.4 51 -8.8 16.2
07:45 1016 30 846 24.98 -0 32 52 -8.8 16.2
07:50 1017 30.03 846 24.98 -0.2 31.7 52 -8.9 15.9
07:55 1017 30.03 846 24.98 -0.2 31.7 50 -9.5 15
08:00 1017 30.03 846 24.98 0.2 32.4 49 -9.3 15.2
08:05 1017 30.03 846 24.98 0.5 32.9 49 -9.1 15.6
08:10 1017 30.03 846 24.98 0.6 33 49 -8.9 16.1
08:15 1017 30.03 846 24.98 0.6 33 47 -9.4 15.1
08:20 1017 30.03 846 24.98 0.7 33.2 49 -9 15.9
08:25 1017 30.03 846 24.98 0.6 33.1 50 -8.6 16.5
08:30 1017 30.03 846 24.98 -0.2 31.7 52 -8.9 16
08:35 1017 30.03 846 24.98 -0.4 31.2 51 -9.3 15.3
08:40 1017 30.03 846 24.98 -0.4 31.3 54 -8.6 16.6
08:45 1017 30.03 846 24.98 -1 30.3 58 -8.2 17.3
08:50 1017 30.03 846 24.98 -1.2 29.8 57 -8.6 16.5
08:55 1017 30.03 846 24.98 -1.2 29.9 56 -8.8 16.2
09:00 1017 30.03 846 24.98 -0.7 30.7 50 -9.9 14.1
09:05 1017 30.03 846 24.98 0.1 32.1 49 -9.4 15.1
09:10 1017 30.03 846 24.98 -0.2 31.6 51 -9.2 15.4
09:15 1017 30.03 846 24.98 -0.5 31.1 51 -9.3 15.3
09:20 1017 30.03 846 24.98 -0.4 31.3 53 -8.9 16
09:25 1017 30.03 846 24.98 -0.2 31.6 53 -8.7 16.3
09:30 1017 30.03 846 24.98 -0.1 31.8 52 -8.9 16.1
09:35 1017 30.03 847 25.01 0 32.1 53 -8.5 16.7
09:40 1017 30.03 847 25.01 -0.1 31.8 50 -9.3 15.2
09:45 1017 30.03 847 25.01 0.2 32.3 48 -9.5 14.9
09:50 1017 30.03 847 25.01 0.7 33.3 46 -9.6 14.8
09:55 1017 30.03 847 25.01 1 33.8 46 -9.2 15.4
10:00 1018 30.06 847 25.01 1 33.9 48 -8.7 16.3
10:05 1018 30.06 847 25.01 0.8 33.5 50 -8.5 16.6
10:10 1018 30.06 847 25.01 0.9 33.5 49 -8.6 16.5
10:15 1018 30.06 847 25.01 0.8 33.4 51 -8.4 16.9
10:20 1018 30.06 847 25.01 0.8 33.5 50 -8.4 17
10:25 1018 30.06 847 25.01 1 33.8 49 -8.5 16.7
10:30 1018 30.06 847 25.01 1.3 34.4 48 -8.5 16.7
10:35 1018 30.06 847 25.01 1.3 34.3 49 -8.3 17.1
10:40 1018 30.06 847 25.01 1.3 34.3 51 -7.7 18.2
10:45 1018 30.06 847 25.01 1.5 34.8 46 -8.7 16.3
10:50 1018 30.06 847 25.01 2.5 36.5 43 -8.9 15.9
10:55 1018 30.06 847 25.01 2.7 36.8 43 -8.8 16.2
11:00 1018 30.06 847 25.01 3 37.3 42 -8.8 16.2
11:05 1018 30.06 847 25.01 3 37.4 43 -8.4 16.9
11:10 1018 30.06 847 25.01 3.1 37.6 41 -8.9 16
11:15 1018 30.06 847 25.01 3.4 38.1 39 -9.2 15.5
11:20 1018 30.06 847 25.01 3.7 38.7 40 -8.6 16.6
11:25 1018 30.06 847 25.01 3.7 38.7 40 -8.5 16.7
11:30 1018 30.06 847 25.01 3.8 38.8 42 -8.1 17.5
11:35 1018 30.06 847 25.01 4.3 39.7 41 -7.9 17.8
11:40 1018 30.06 847 25.01 4.4 39.8 38 -8.6 16.5
11:45 1018 30.06 847 25.01 4.3 39.7 38 -8.7 16.4
11:50 1018 30.06 847 25.01 4.2 39.5 38 -8.9 16.1
11:55 1018 30.06 847 25.01 4.4 40 38 -8.8 16.1
12:00 1018 30.06 847 25.01 4.9 40.9 34 -9.5 14.9
12:05 1018 30.06 847 25.01 5.2 41.3 38 -7.9 17.7
12:10 1018 30.06 847 25.01 5.2 41.3 37 -8.4 16.9
12:15 1018 30.06 847 25.01 5.8 42.4 37 -7.8 17.9
12:20 1018 30.06 847 25.01 5.8 42.4 39 -7.2 19.1
12:25 1018 30.06 847 25.01 5.5 42 38 -7.8 17.9
12:30 1018 30.06 847 25.01 5.7 42.2 38 -7.7 18.1
12:35 1018 30.06 847 25.01 5.2 41.4 40 -7.2 19
12:40 1018 30.06 847 25.01 5 41 39 -7.8 17.9
12:45 1018 30.06 847 25.01 4.8 40.7 40 -7.7 18.2
12:50 1018 30.06 847 25.01 4.4 40 41 -7.8 17.9
12:55 1018 30.06 847 25.01 4.3 39.7 40 -8.2 17.3
13:00 1018 30.06 847 25.01 4.2 39.6 41 -7.9 17.8
13:05 1018 30.06 847 25.01 4.2 39.6 38 -8.9 15.9
13:10 1018 30.06 847 25.01 4.2 39.5 37 -9.2 15.5
13:15 1018 30.06 847 25.01 4.1 39.3 40 -8.5 16.8
13:20 1018 30.06 847 25.01 4 39.2 40 -8.4 17
13:25 1018 30.06 847 25.01 3.9 38.9 40 -8.6 16.5
13:30 1017 30.03 847 25.01 3.8 38.8 40 -8.6 16.5
13:35 1017 30.03 847 25.01 3.8 38.8 40 -8.6 16.5
13:40 1017 30.03 847 25.01 3.7 38.7 41 -8.4 17
13:45 1018 30.06 847 25.01 3.8 38.9 40 -8.7 16.4
13:50 1018 30.06 847 25.01 4 39.2 41 -8.1 17.4
13:55 1017 30.03 847 25.01 4.1 39.3 41 -8 17.6
14:00 1017 30.03 847 25.01 3.9 39 44 -7.3 18.9
14:05 1017 30.03 847 25.01 3.9 39 42 -7.9 17.9
14:10 1018 30.06 847 25.01 4.1 39.4 41 -8.1 17.4
14:15 1018 30.06 847 25.01 4.2 39.6 43 -7.3 18.8
14:20 1018 30.06 847 25.01 4.4 39.9 42 -7.4 18.6
14:25 1018 30.06 847 25.01 4.2 39.6 40 -8.4 17
14:30 1018 30.06 847 25.01 4.1 39.4 40 -8.3 17
14:35 1018 30.06 847 25.01 4.1 39.3 40 -8.2 17.2
14:40 1018 30.06 847 25.01 4 39.3 39 -8.6 16.4
14:45 1018 30.06 847 25.01 4.1 39.3 38 -9.1 15.7
14:50 1018 30.06 847 25.01 4.1 39.3 39 -8.5 16.7
14:55 1018 30.06 847 25.01 4.3 39.7 41 -7.7 18.1
15:00 1018 30.06 847 25.01 4.5 40.1 39 -8.3 17
15:05 1018 30.06 847 25.01 4.7 40.5 39 -8.2 17.3
15:10 1018 30.06 847 25.01 4.8 40.7 39 -7.8 17.9
15:15 1018 30.06 847 25.01 4.7 40.4 38 -8.3 17
15:20 1018 30.06 847 25.01 4.5 40.1 40 -7.9 17.7
15:25 1018 30.06 847 25.01 4.4 39.9 41 -7.7 18.1
15:30 1018 30.06 847 25.01 4.2 39.5 41 -7.8 17.9
15:35 1018 30.06 847 25.01 4.1 39.4 41 -8 17.5
15:40 1018 30.06 847 25.01 4.1 39.4 42 -7.8 18
15:45 1018 30.06 847 25.01 4.2 39.5 41 -7.9 17.8
15:50 1018 30.06 847 25.01 4.2 39.5 41 -7.9 17.8
15:55 1018 30.06 847 25.01 4.2 39.6 41 -7.9 17.7
16:00 1018 30.06 847 25.01 4.3 39.7 42 -7.6 18.2
16:05 1018 30.06 848 25.04 4.3 39.8 43 -7.1 19.3
16:10 1018 30.06 848 25.04 4.4 40 42 -7.5 18.5
16:15 1018 30.06 848 25.04 4.4 39.8 42 -7.3 18.8
16:20 1018 30.06 848 25.04 4.3 39.7 41 -7.9 17.7
16:25 1019 30.09 848 25.04 4.2 39.6 42 -7.7 18.1
16:30 1019 30.09 848 25.04 4.1 39.4 42 -7.6 18.3
16:35 1019 30.09 848 25.04 4.1 39.3 42 -7.8 17.9
16:40 1019 30.09 848 25.04 4 39.3 43 -7.6 18.4
16:45 1019 30.09 848 25.04 3.9 39.1 42 -7.8 18
16:50 1019 30.09 848 25.04 4 39.2 43 -7.6 18.4
16:55 1019 30.09 848 25.04 4.2 39.6 41 -7.9 17.7
17:00 1019 30.09 848 25.04 4.3 39.8 41 -7.7 18.1
17:05 1019 30.09 848 25.04 4 39.3 40 -8.2 17.2
17:10 1019 30.09 848 25.04 4.1 39.3 41 -8.1 17.5
17:15 1019 30.09 848 25.04 4.1 39.3 42 -7.6 18.3
17:20 1019 30.09 848 25.04 3.9 38.9 43 -7.6 18.4
17:25 1019 30.09 848 25.04 3.5 38.4 44 -7.7 18.1
17:30 1019 30.09 848 25.04 3.3 38 45 -7.5 18.4
17:35 1019 30.09 848 25.04 3 37.4 47 -7.3 18.9
17:40 1019 30.09 848 25.04 2.8 37 47 -7.4 18.6
17:45 1019 30.09 848 25.04 2.7 36.9 47 -7.5 18.5
17:50 1019 30.09 848 25.04 2.6 36.7 48 -7.4 18.7
17:55 1019 30.09 849 25.07 2.5 36.4 49 -7.3 18.9
18:00 1019 30.09 849 25.07 2.4 36.4 48 -7.5 18.5
18:05 1019 30.09 849 25.07 2.4 36.3 48 -7.6 18.3
18:10 1019 30.09 849 25.07 2.4 36.2 47 -7.7 18.1
18:15 1020 30.12 849 25.07 2.4 36.3 47 -7.9 17.9
18:20 1020 30.12 849 25.07 2.4 36.3 47 -7.8 18
18:25 1020 30.12 849 25.07 2.4 36.3 47 -7.7 18.1
18:30 1020 30.12 849 25.07 2.3 36.2 47 -7.8 18
18:35 1020 30.12 849 25.07 2.3 36.1 47 -7.9 17.8
18:40 1020 30.12 849 25.07 2.4 36.3 46 -8.1 17.4
18:45 1020 30.12 849 25.07 2.5 36.4 46 -8 17.5
18:50 1020 30.12 849 25.07 2.6 36.6 45 -8.1 17.4
18:55 1020 30.12 849 25.07 2.7 36.8 45 -8.2 17.2
19:00 1020 30.12 849 25.07 2.7 36.9 45 -8 17.7
19:05 1020 30.12 849 25.07 2.5 36.4 46 -7.9 17.8
19:10 1020 30.12 849 25.07 2.2 36 47 -7.8 17.9
19:15 1020 30.12 849 25.07 2.1 35.8 46 -8.3 17.1
19:20 1020 30.12 849 25.07 2.4 36.3 46 -8.2 17.3
19:25 1020 30.12 849 25.07 2.4 36.4 46 -8.2 17.3
19:30 1020 30.12 849 25.07 2.4 36.3 46 -8.2 17.3
19:35 1020 30.12 849 25.07 2.3 36.2 46 -8.2 17.3
19:40 1020 30.12 849 25.07 2.3 36.1 47 -7.9 17.8
19:45 1020 30.12 849 25.07 2.2 35.9 46 -8.2 17.2
19:50 1020 30.12 849 25.07 2.2 36 46 -8.1 17.4
19:55 1020 30.12 850 25.1 2.1 35.8 48 -7.8 18
20:00 1020 30.12 850 25.1 1.8 35.2 51 -7.4 18.7
20:05 1020 30.12 850 25.1 1.6 34.9 50 -7.7 18.2
20:10 1020 30.12 850 25.1 1.7 35.1 48 -8.1 17.5
20:15 1021 30.15 850 25.1 1.7 35.1 49 -7.9 17.8
20:20 1021 30.15 850 25.1 1.7 35 49 -7.9 17.8
20:25 1021 30.15 850 25.1 1.4 34.5 50 -7.9 17.8
20:30 1021 30.15 850 25.1 1.1 34 49 -8.4 16.9
20:35 1021 30.15 850 25.1 1 33.9 50 -8.2 17.2
20:40 1021 30.15 851 25.13 0.9 33.6 50 -8.3 17.1
20:45 1021 30.15 851 25.13 0.7 33.2 51 -8.2 17.2
20:50 1021 30.15 851 25.13 0.7 33.2 51 -8.4 16.9
20:55 1021 30.15 851 25.13 0.7 33.2 53 -7.8 18
21:00 1021 30.15 851 25.13 0.4 32.7 54 -8 17.7
21:05 1021 30.15 851 25.13 0.1 32.3 57 -7.5 18.5
21:10 1021 30.15 851 25.13 0.2 32.3 54 -8.1 17.4
21:15 1021 30.15 851 25.13 0.4 32.7 55 -7.6 18.3
21:20 1021 30.15 851 25.13 0.4 32.8 53 -8 17.5
21:25 1021 30.15 851 25.13 0.7 33.3 52 -8 17.7
21:30 1021 30.15 851 25.13 1 33.7 52 -7.9 17.8
21:35 1021 30.15 851 25.13 1.1 33.9 50 -8.4 17
21:40 1021 30.15 851 25.13 1.3 34.4 49 -8.2 17.2
21:45 1021 30.15 851 25.13 1.5 34.6 50 -7.9 17.9
21:50 1021 30.15 851 25.13 1.2 34.2 49 -8.2 17.2
21:55 1021 30.15 850 25.1 1.3 34.4 49 -8.4 17
22:00 1021 30.15 850 25.1 1.5 34.7 48 -8.5 16.8
22:05 1021 30.15 850 25.1 1.4 34.5 48 -8.3 17
22:10 1021 30.15 850 25.1 1.6 34.9 46 -8.9 16.1
22:15 1021 30.15 850 25.1 1.8 35.3 46 -8.7 16.4
22:20 1021 30.15 850 25.1 2 35.6 46 -8.5 16.7
22:25 1021 30.15 850 25.1 1.8 35.2 47 -8.3 17.1
22:30 1021 30.15 850 25.1 1.6 34.9 49 -7.9 17.7
22:35 1021 30.15 850 25.1 1 33.8 52 -7.8 17.9
22:40 1021 30.15 850 25.1 1 33.8 50 -8.4 16.9
22:45 1021 30.15 850 25.1 1.1 34 51 -8 17.7
22:50 1021 30.15 850 25.1 1 33.9 51 -7.9 17.7
22:55 1021 30.15 850 25.1 0.8 33.4 54 -7.6 18.3
23:00 1021 30.15 850 25.1 0.5 33 51 -8.4 16.8
23:05 1021 30.15 850 25.1 1.1 34 48 -8.6 16.5
23:10 1021 30.15 850 25.1 1.4 34.5 48 -8.3 17
23:15 1021 30.15 850 25.1 1.4 34.5 47 -8.7 16.3
23:20 1021 30.15 850 25.1 1.6 34.8 47 -8.7 16.3
23:25 1021 30.15 850 25.1 1.5 34.8 47 -8.6 16.6
23:30 1021 30.15 850 25.1 1.5 34.6 47 -8.6 16.6
23:35 1021 30.15 850 25.1 1.4 34.6 48 -8.4 16.8
23:40 1021 30.15 851 25.13 0.9 33.6 54 -7.3 18.8
23:45 1022 30.18 851 25.13 0.1 32.2 54 -8.1 17.5
23:50 1022 30.18 851 25.13 0.3 32.5 53 -8.2 17.2
23:55 1022 30.18 851 25.13 0.6 33.1 48 -9.2 15.4
24:00 1022 30.18 851 25.13 1 33.8 50 -8.2 17.3